EZY15WP EGGW-LEPA
Flight info
| Callsign | EZY15WP |
|---|---|
| Flight time | N/A |
| Altitude | 37000 |
| Route | RODNI N27 ICTAM Q63 CPT UN859 SOPIL DCT BALAN DCT EVPOK DCT NARAK DCT GAI DCT LOMRA DCT ROCAN DCT IBRAP N13 LORES |
| Aircraft | A319/M-SDE2E3FGIJ1RWXYZ/LB1 |
Departure
| Time | 2026-04-28 15:57 |
|---|---|
| Airport | London Luton Airport (EGGW) |
Arrival
| Time | N/A |
|---|---|
| Airport | Palma de Mallorca Airport (LEPA) |
| Time | Latitude | Longitude | Altitude | Speed | Heading |
|---|---|---|---|---|---|
| 2026-04-28 15:46 | 51.87819 | -0.37786 | 524 ft | 0 kts | 23° |
| 2026-04-28 15:51 | 51.87816 | -0.37788 | 523 ft | 2 kts | 24° |
| 2026-04-28 15:51 | 51.87801 | -0.37803 | 523 ft | 3 kts | 56° |
| 2026-04-28 15:51 | 51.87793 | -0.37832 | 523 ft | 3 kts | 81° |
| 2026-04-28 15:52 | 51.87791 | -0.37862 | 523 ft | 2 kts | 90° |
| 2026-04-28 15:52 | 51.87791 | -0.37873 | 523 ft | 0 kts | 90° |
| 2026-04-28 15:53 | 51.87791 | -0.37871 | 523 ft | 2 kts | 90° |
| 2026-04-28 15:54 | 51.87770 | -0.37805 | 523 ft | 10 kts | 118° |
| 2026-04-28 15:54 | 51.87731 | -0.37675 | 520 ft | 16 kts | 115° |
| 2026-04-28 15:54 | 51.87677 | -0.37513 | 521 ft | 15 kts | 130° |
| 2026-04-28 15:54 | 51.87592 | -0.37456 | 523 ft | 13 kts | 179° |
| 2026-04-28 15:55 | 51.87509 | -0.37519 | 522 ft | 14 kts | 239° |
| 2026-04-28 15:55 | 51.87482 | -0.37660 | 523 ft | 13 kts | 254° |
| 2026-04-28 15:55 | 51.87458 | -0.37800 | 523 ft | 13 kts | 255° |
| 2026-04-28 15:55 | 51.87433 | -0.37943 | 524 ft | 13 kts | 255° |
| 2026-04-28 15:56 | 51.87388 | -0.38052 | 523 ft | 12 kts | 204° |
| 2026-04-28 15:56 | 51.87306 | -0.38111 | 522 ft | 13 kts | 203° |
| 2026-04-28 15:56 | 51.87251 | -0.38070 | 524 ft | 11 kts | 80° |
| 2026-04-28 15:56 | 51.87284 | -0.37872 | 524 ft | 43 kts | 75° |
| 2026-04-28 15:57 | 51.87437 | -0.37010 | 523 ft | 113 kts | 74° |
| 2026-04-28 15:57 | 51.87700 | -0.35487 | 579 ft | 159 kts | 75° |
| 2026-04-28 15:57 | 51.88006 | -0.33810 | 1210 ft | 153 kts | 73° |
| 2026-04-28 15:57 | 51.88313 | -0.32110 | 1677 ft | 166 kts | 74° |
| 2026-04-28 15:58 | 51.88646 | -0.30222 | 1984 ft | 188 kts | 75° |
| 2026-04-28 15:58 | 51.89029 | -0.28050 | 2340 ft | 207 kts | 74° |
| 2026-04-28 15:58 | 51.89175 | -0.25733 | 2884 ft | 213 kts | 100° |
| 2026-04-28 15:58 | 51.88529 | -0.23605 | 3501 ft | 214 kts | 133° |
| 2026-04-28 15:59 | 51.87267 | -0.22353 | 3715 ft | 215 kts | 167° |
| 2026-04-28 15:59 | 51.86292 | -0.22272 | 3719 ft | 212 kts | 189° |
| 2026-04-28 15:59 | 51.84625 | -0.23810 | 3721 ft | 211 kts | 232° |
| 2026-04-28 15:59 | 51.84038 | -0.25959 | 3726 ft | 211 kts | 256° |
| 2026-04-28 16:00 | 51.83694 | -0.28264 | 3720 ft | 211 kts | 256° |
| 2026-04-28 16:00 | 51.83342 | -0.30641 | 3712 ft | 233 kts | 256° |
| 2026-04-28 16:00 | 51.82937 | -0.33364 | 3726 ft | 258 kts | 256° |
| 2026-04-28 16:00 | 51.82516 | -0.36186 | 3719 ft | 263 kts | 256° |
| 2026-04-28 16:01 | 51.82083 | -0.39060 | 3717 ft | 264 kts | 256° |
| 2026-04-28 16:01 | 51.81645 | -0.41938 | 3721 ft | 264 kts | 256° |
| 2026-04-28 16:01 | 51.81204 | -0.44848 | 4360 ft | 267 kts | 256° |
| 2026-04-28 16:01 | 51.80759 | -0.47769 | 5333 ft | 269 kts | 256° |
| 2026-04-28 16:02 | 51.80311 | -0.50722 | 6235 ft | 272 kts | 256° |
| 2026-04-28 16:02 | 51.79858 | -0.53714 | 7109 ft | 276 kts | 256° |
| 2026-04-28 16:02 | 51.79397 | -0.56748 | 7975 ft | 280 kts | 256° |
| 2026-04-28 16:02 | 51.78927 | -0.59816 | 8807 ft | 283 kts | 256° |
| 2026-04-28 16:03 | 51.78452 | -0.62924 | 9633 ft | 287 kts | 256° |
| 2026-04-28 16:03 | 51.77963 | -0.66124 | 10116 ft | 304 kts | 256° |
| 2026-04-28 16:03 | 51.77435 | -0.69565 | 10374 ft | 328 kts | 256° |
| 2026-04-28 16:03 | 51.76858 | -0.73307 | 10573 ft | 351 kts | 256° |
| 2026-04-28 16:04 | 51.76040 | -0.77095 | 11012 ft | 363 kts | 245° |
| 2026-04-28 16:04 | 51.74756 | -0.80622 | 11661 ft | 368 kts | 233° |
| 2026-04-28 16:04 | 51.73061 | -0.83734 | 12340 ft | 371 kts | 225° |
| 2026-04-28 16:04 | 51.71847 | -0.85690 | 12788 ft | 374 kts | 225° |
| 2026-04-28 16:05 | 51.69369 | -0.89680 | 13672 ft | 378 kts | 225° |
| 2026-04-28 16:05 | 51.67520 | -0.92652 | 14308 ft | 382 kts | 225° |
| 2026-04-28 16:05 | 51.65608 | -0.95724 | 14936 ft | 386 kts | 225° |
| 2026-04-28 16:05 | 51.63699 | -0.98791 | 15547 ft | 389 kts | 225° |
| 2026-04-28 16:06 | 51.61773 | -1.01881 | 16142 ft | 393 kts | 225° |
| 2026-04-28 16:06 | 51.59828 | -1.04992 | 16733 ft | 396 kts | 225° |
| 2026-04-28 16:06 | 51.59195 | -1.06001 | 16909 ft | 397 kts | 225° |
| 2026-04-28 16:06 | 51.58176 | -1.07639 | 17203 ft | 399 kts | 225° |
| 2026-04-28 16:07 | 51.56191 | -1.10782 | 17760 ft | 402 kts | 222° |
| 2026-04-28 16:07 | 51.53951 | -1.13493 | 18302 ft | 406 kts | 212° |
| 2026-04-28 16:07 | 51.48688 | -1.16856 | 19325 ft | 413 kts | 191° |
| 2026-04-28 16:08 | 51.45823 | -1.17294 | 19819 ft | 416 kts | 180° |
| 2026-04-28 16:08 | 51.42939 | -1.16799 | 20287 ft | 419 kts | 168° |
| 2026-04-28 16:08 | 51.40158 | -1.15355 | 20746 ft | 423 kts | 156° |
| 2026-04-28 16:09 | 51.35700 | -1.12053 | 21477 ft | 427 kts | 155° |
| 2026-04-28 16:09 | 51.32991 | -1.10058 | 21908 ft | 430 kts | 155° |
| 2026-04-28 16:09 | 51.30259 | -1.08061 | 22325 ft | 432 kts | 156° |
| 2026-04-28 16:10 | 51.24750 | -1.04048 | 23113 ft | 438 kts | 156° |
| 2026-04-28 16:10 | 51.21974 | -1.02022 | 23491 ft | 440 kts | 155° |
| 2026-04-28 16:10 | 51.16367 | -0.97923 | 24218 ft | 445 kts | 155° |
| 2026-04-28 16:11 | 51.10702 | -0.93813 | 24926 ft | 450 kts | 156° |
| 2026-04-28 16:11 | 51.04977 | -0.89684 | 25586 ft | 454 kts | 156° |
| 2026-04-28 16:12 | 50.99192 | -0.85501 | 26209 ft | 459 kts | 156° |
| 2026-04-28 16:12 | 50.96278 | -0.83403 | 26507 ft | 461 kts | 156° |
| 2026-04-28 16:13 | 50.90416 | -0.79190 | 27077 ft | 465 kts | 156° |
| 2026-04-28 16:13 | 50.87466 | -0.77071 | 27355 ft | 467 kts | 156° |
| 2026-04-28 16:13 | 50.81827 | -0.71905 | 27885 ft | 471 kts | 147° |
| 2026-04-28 16:14 | 50.76316 | -0.66282 | 28541 ft | 471 kts | 147° |
| 2026-04-28 16:14 | 50.70812 | -0.60703 | 29255 ft | 470 kts | 147° |
| 2026-04-28 16:15 | 50.65316 | -0.55144 | 29967 ft | 468 kts | 147° |
| 2026-04-28 16:15 | 50.62580 | -0.52380 | 30320 ft | 468 kts | 147° |
| 2026-04-28 16:15 | 50.59842 | -0.49618 | 30673 ft | 467 kts | 147° |
| 2026-04-28 16:16 | 50.54372 | -0.44109 | 31360 ft | 466 kts | 148° |
| 2026-04-28 16:16 | 50.51647 | -0.41367 | 31700 ft | 465 kts | 148° |
| 2026-04-28 16:17 | 50.46202 | -0.35901 | 32377 ft | 464 kts | 148° |
| 2026-04-28 16:17 | 50.43485 | -0.33188 | 32698 ft | 463 kts | 148° |
| 2026-04-28 16:17 | 50.40770 | -0.30483 | 33029 ft | 462 kts | 148° |
| 2026-04-28 16:17 | 50.38059 | -0.27781 | 33353 ft | 462 kts | 148° |
| 2026-04-28 16:18 | 50.35353 | -0.25081 | 33671 ft | 461 kts | 148° |
| 2026-04-28 16:18 | 50.32648 | -0.22386 | 33989 ft | 460 kts | 148° |
| 2026-04-28 16:18 | 50.29947 | -0.19703 | 34298 ft | 460 kts | 148° |
| 2026-04-28 16:18 | 50.27244 | -0.17028 | 34616 ft | 459 kts | 148° |
| 2026-04-28 16:19 | 50.24543 | -0.14360 | 34919 ft | 458 kts | 148° |
| 2026-04-28 16:19 | 50.21847 | -0.11694 | 35208 ft | 458 kts | 148° |
| 2026-04-28 16:19 | 50.19164 | -0.09034 | 35483 ft | 457 kts | 148° |
| 2026-04-28 16:19 | 50.16475 | -0.06377 | 35750 ft | 457 kts | 148° |
| 2026-04-28 16:20 | 50.13790 | -0.03737 | 36009 ft | 456 kts | 148° |
| 2026-04-28 16:20 | 50.11067 | -0.01215 | 36245 ft | 455 kts | 154° |
| 2026-04-28 16:20 | 50.08142 | 0.00680 | 36468 ft | 455 kts | 163° |
| 2026-04-28 16:20 | 50.05089 | 0.01951 | 36658 ft | 455 kts | 166° |
| 2026-04-28 16:21 | 49.98935 | 0.04350 | 36718 ft | 457 kts | 166° |
| 2026-04-28 16:21 | 49.92771 | 0.06782 | 36719 ft | 457 kts | 166° |
| 2026-04-28 16:22 | 49.86646 | 0.09185 | 36718 ft | 457 kts | 166° |
| 2026-04-28 16:22 | 49.80478 | 0.11601 | 36719 ft | 457 kts | 166° |
| 2026-04-28 16:23 | 49.74315 | 0.14009 | 36720 ft | 457 kts | 166° |
| 2026-04-28 16:23 | 49.70961 | 0.15315 | 36720 ft | 457 kts | 166° |